Time;durP1;ratioP1;P1;durP2;ratioP2;P2;SDS_P1;SDS_P2;PMS_P1;PMS_P2;Temp;Humidity;BMP_temperature;BMP_pressure;BME280_temperature;BME280_humidity;BME280_pressure;Samples;Min_cycle;Max_cycle;Signal;HPM_P1;HPM_P2
2021/03/10 00:00:41;;;;;;;31.50;23.03;;;3.50;95.70;;;;;;5129870;27;20431;-62
2021/03/10 00:03:06;;;;;;;32.43;23.43;;;3.50;95.70;;;;;;5129160;27;20200;-62
2021/03/10 00:05:38;;;;;;;29.73;23.10;;;3.60;95.70;;;;;;5129387;27;20058;-62
2021/03/10 00:08:04;;;;;;;32.10;22.65;;;3.60;95.80;;;;;;5129836;27;20186;-62
2021/03/10 00:10:30;;;;;;;31.20;22.85;;;3.60;95.80;;;;;;5129563;27;20043;-62
2021/03/10 00:12:56;;;;;;;27.07;21.70;;;3.50;95.70;;;;;;5129292;27;20096;-62
2021/03/10 00:15:22;;;;;;;27.27;20.70;;;3.30;95.80;;;;;;5129709;27;20470;-62
2021/03/10 00:17:48;;;;;;;28.00;21.60;;;3.30;95.90;;;;;;5129153;27;20297;-62
2021/03/10 00:20:15;;;;;;;30.87;22.37;;;3.30;96.00;;;;;;5129381;27;20497;-62
2021/03/10 00:22:41;;;;;;;28.45;21.45;;;3.30;96.00;;;;;;5129043;27;20413;-62
2021/03/10 00:25:08;;;;;;;34.00;22.97;;;3.30;96.00;;;;;;5129410;27;20047;-62
2021/03/10 00:27:34;;;;;;;45.67;28.48;;;3.30;96.00;;;;;;5129544;27;20315;-62
2021/03/10 00:30:05;;;;;;;45.65;27.85;;;3.40;96.00;;;;;;5129192;27;20097;-62
2021/03/10 00:32:30;;;;;;;35.63;24.63;;;3.40;96.00;;;;;;5129388;27;20039;-61
2021/03/10 00:34:56;;;;;;;33.10;23.60;;;3.40;95.90;;;;;;5129610;27;20065;-62
2021/03/10 00:37:23;;;;;;;36.63;24.27;;;3.40;96.20;;;;;;5129527;27;20347;-61
2021/03/10 00:39:50;;;;;;;32.90;23.75;;;3.40;96.00;;;;;;5129324;27;20055;-63
2021/03/10 00:42:16;;;;;;;29.23;21.70;;;3.40;96.00;;;;;;5129328;27;20163;-62
2021/03/10 00:44:42;;;;;;;28.73;22.27;;;3.40;96.00;;;;;;5128931;28;20131;-64
2021/03/10 00:47:08;;;;;;;32.33;23.30;;;3.40;96.00;;;;;;5129090;27;20111;-62
2021/03/10 00:49:35;;;;;;;31.60;23.73;;;3.40;95.90;;;;;;5127227;28;20146;-62
2021/03/10 00:52:01;;;;;;;29.98;22.65;;;3.40;95.90;;;;;;5129065;28;20463;-62
2021/03/10 00:54:26;;;;;;;31.97;23.00;;;3.40;96.00;;;;;;5129461;28;20059;-62
2021/03/10 00:56:52;;;;;;;30.27;22.63;;;3.40;96.00;;;;;;5129536;28;20119;-62
2021/03/10 00:59:18;;;;;;;29.88;22.50;;;3.40;96.00;;;;;;5129581;27;20394;-62
2021/03/10 01:01:44;;;;;;;29.17;21.93;;;3.40;96.00;;;;;;5128844;28;20051;-63
2021/03/10 01:04:10;;;;;;;30.07;21.73;;;3.40;95.90;;;;;;5128989;28;20493;-62
2021/03/10 01:06:35;;;;;;;28.27;21.50;;;3.40;95.90;;;;;;5128745;28;20122;-62
2021/03/10 01:09:01;;;;;;;27.47;21.13;;;3.50;96.00;;;;;;5128536;27;20078;-62
2021/03/10 01:11:28;;;;;;;26.98;21.15;;;3.50;96.00;;;;;;5128920;27;20537;-61
2021/03/10 01:13:54;;;;;;;29.23;22.63;;;3.40;95.80;;;;;;5129964;27;20049;-61
2021/03/10 01:16:19;;;;;;;26.23;20.50;;;3.50;95.90;;;;;;5132460;27;20043;-62
2021/03/10 01:18:45;;;;;;;28.63;21.67;;;3.50;96.00;;;;;;5132710;27;20111;-62
2021/03/10 01:21:11;;;;;;;25.67;20.27;;;3.50;95.90;;;;;;5132317;27;20567;-63
2021/03/10 01:23:36;;;;;;;27.47;21.03;;;3.50;95.90;;;;;;5132276;27;20051;-62
2021/03/10 01:26:02;;;;;;;29.20;21.20;;;3.50;95.80;;;;;;5132339;27;20112;-61
2021/03/10 01:28:28;;;;;;;28.97;21.77;;;3.50;95.80;;;;;;5132768;27;20047;-62
2021/03/10 01:30:54;;;;;;;26.50;21.25;;;3.50;95.80;;;;;;5132771;27;20054;-62
2021/03/10 01:33:20;;;;;;;29.00;21.27;;;3.50;95.80;;;;;;5132535;27;20055;-62
2021/03/10 01:35:45;;;;;;;28.73;21.43;;;3.60;95.80;;;;;;5132568;27;20123;-62
2021/03/10 01:38:11;;;;;;;28.73;22.00;;;3.50;95.70;;;;;;5132556;27;20047;-62
2021/03/10 01:40:37;;;;;;;28.37;21.33;;;3.60;95.70;;;;;;5132604;27;20047;-63
2021/03/10 01:43:07;;;;;;;27.33;21.30;;;3.60;95.70;;;;;;5132016;27;20681;-62
2021/03/10 01:45:36;;;;;;;26.98;21.40;;;3.60;95.80;;;;;;5132005;27;20504;-61
2021/03/10 01:48:09;;;;;;;26.48;20.90;;;3.60;95.80;;;;;;5132176;27;20065;-61
2021/03/10 01:50:35;;;;;;;27.88;21.38;;;3.60;95.80;;;;;;5132301;27;20565;-62
2021/03/10 01:53:03;;;;;;;28.88;20.42;;;3.60;95.80;;;;;;5132069;27;20126;-61
2021/03/10 01:55:29;;;;;;;27.20;21.50;;;3.60;95.70;;;;;;5132768;27;20043;-63
2021/03/10 01:57:55;;;;;;;29.40;21.90;;;3.60;95.80;;;;;;5134028;27;20074;-62
2021/03/10 02:00:23;;;;;;;30.27;21.90;;;3.60;95.80;;;;;;5132779;27;20055;-62
2021/03/10 02:02:50;;;;;;;30.30;22.27;;;3.60;95.80;;;;;;5131819;27;20049;-63
2021/03/10 02:05:18;;;;;;;28.92;21.80;;;3.60;95.70;;;;;;5131938;27;20462;-63
2021/03/10 02:08:06;;;;;;;28.05;20.42;;;3.60;95.60;;;;;;5131653;27;20051;-63
2021/03/10 02:10:59;;;;;;;28.00;21.40;;;3.60;95.60;;;;;;5132056;27;20075;-63
2021/03/10 02:13:48;;;;;;;27.83;21.23;;;3.60;95.60;;;;;;5131469;27;20179;-63
2021/03/10 02:16:35;;;;;;;29.17;21.08;;;3.70;95.70;;;;;;5131742;27;20054;-62
2021/03/10 02:19:29;;;;;;;26.77;20.23;;;3.60;95.70;;;;;;5131701;27;20465;-62
2021/03/10 02:22:00;;;;;;;;;;;3.60;95.60;;;;;;5132032;27;20046;-63
2021/03/10 02:24:57;;;;;;;29.92;21.88;;;3.60;95.50;;;;;;5131270;27;20022;-62
2021/03/10 02:27:41;;;;;;;31.20;22.60;;;3.60;95.70;;;;;;5131160;27;20073;-63
2021/03/10 02:30:08;;;;;;;27.85;21.23;;;3.60;95.70;;;;;;5131485;27;20051;-62
2021/03/10 02:32:38;;;;;;;30.30;21.23;;;3.60;95.80;;;;;;5131325;27;20054;-62
2021/03/10 02:35:05;;;;;;;25.77;20.40;;;3.50;95.60;;;;;;5131399;27;20130;-63
2021/03/10 02:37:33;;;;;;;29.13;20.70;;;3.50;95.60;;;;;;5131164;27;20103;-61
2021/03/10 02:40:00;;;;;;;27.10;20.50;;;3.50;95.50;;;;;;5130889;27;20578;-61
2021/03/10 02:42:26;;;;;;;27.05;20.30;;;3.50;95.50;;;;;;5131187;27;20058;-61
2021/03/10 02:44:55;;;;;;;28.10;21.00;;;3.50;95.50;;;;;;5131137;27;20042;-61
2021/03/10 02:47:21;;;;;;;29.58;21.58;;;3.50;95.50;;;;;;5130850;27;20483;-61
2021/03/10 02:49:47;;;;;;;27.92;21.42;;;3.40;95.40;;;;;;5131340;27;20172;-60
2021/03/10 02:52:14;;;;;;;26.48;20.63;;;3.40;95.40;;;;;;5131239;27;20074;-61
2021/03/10 02:54:42;;;;;;;29.73;21.27;;;3.30;95.50;;;;;;5129432;27;20050;-61
2021/03/10 02:57:07;;;;;;;28.08;21.25;;;3.30;95.60;;;;;;5130911;27;20157;-61
2021/03/10 02:59:34;;;;;;;28.07;20.77;;;3.30;95.70;;;;;;5130976;27;20135;-62
2021/03/10 03:02:00;;;;;;;29.88;21.27;;;3.60;95.70;;;;;;5130636;27;20039;-61
2021/03/10 03:04:26;;;;;;;28.42;21.63;;;3.40;95.60;;;;;;5130518;27;20058;-61
2021/03/10 03:06:51;;;;;;;29.77;21.37;;;3.40;95.50;;;;;;5131010;27;20058;-61
2021/03/10 03:09:18;;;;;;;29.47;22.67;;;3.40;95.40;;;;;;5130775;27;20043;-61
2021/03/10 03:11:43;;;;;;;27.73;20.92;;;3.40;95.30;;;;;;5130630;27;20047;-61
2021/03/10 03:14:11;;;;;;;28.20;21.90;;;3.50;95.40;;;;;;5130494;27;20062;-62
2021/03/10 03:16:37;;;;;;;30.42;22.98;;;3.50;95.20;;;;;;5130681;27;20076;-62
2021/03/10 03:19:03;;;;;;;30.92;21.35;;;3.50;95.20;;;;;;5130416;27;20541;-61
2021/03/10 03:21:29;;;;;;;29.43;22.50;;;3.50;95.30;;;;;;5130251;27;20127;-61
2021/03/10 03:23:55;;;;;;;31.40;23.30;;;3.50;95.30;;;;;;5130776;27;20066;-62
2021/03/10 03:26:21;;;;;;;31.50;22.03;;;3.50;95.30;;;;;;5130327;27;20073;-61
2021/03/10 03:28:47;;;;;;;30.70;22.40;;;3.50;95.30;;;;;;5130267;27;20055;-62
2021/03/10 03:31:15;;;;;;;29.45;22.25;;;3.50;95.30;;;;;;5130617;27;20153;-62
2021/03/10 03:33:42;;;;;;;28.98;22.52;;;3.50;95.40;;;;;;5130349;27;20478;-62
2021/03/10 03:36:08;;;;;;;32.38;23.30;;;3.50;95.50;;;;;;5129613;27;20170;-61
2021/03/10 03:38:34;;;;;;;30.80;22.85;;;3.50;95.60;;;;;;5130326;27;20461;-61
2021/03/10 03:41:00;;;;;;;30.48;22.25;;;3.50;95.70;;;;;;5130178;27;20172;-61
2021/03/10 03:43:28;;;;;;;30.63;21.70;;;3.50;95.80;;;;;;5129814;27;20148;-60
2021/03/10 03:45:54;;;;;;;32.13;23.42;;;3.50;95.80;;;;;;5130159;27;20165;-60
2021/03/10 03:48:21;;;;;;;31.60;22.67;;;3.50;95.90;;;;;;5129861;27;20054;-61
2021/03/10 03:50:47;;;;;;;31.98;23.35;;;3.50;95.80;;;;;;5129745;27;20692;-60
2021/03/10 03:53:13;;;;;;;32.10;23.13;;;3.50;95.80;;;;;;5129858;27;20484;-60
2021/03/10 03:55:42;;;;;;;29.70;22.00;;;3.40;95.70;;;;;;5129590;27;20173;-60
2021/03/10 03:58:08;;;;;;;30.33;22.73;;;3.40;95.70;;;;;;5129921;27;20043;-61
2021/03/10 04:00:34;;;;;;;29.10;21.77;;;3.30;95.70;;;;;;5129906;27;20418;-60
2021/03/10 04:03:01;;;;;;;32.25;22.55;;;3.30;95.80;;;;;;5129769;27;20043;-60
2021/03/10 04:05:27;;;;;;;33.95;24.27;;;3.20;95.90;;;;;;5129777;27;20139;-61
2021/03/10 04:07:58;;;;;;;33.13;21.92;;;3.10;96.00;;;;;;5129620;27;20108;-60
2021/03/10 04:10:33;;;;;;;33.05;23.55;;;3.00;96.10;;;;;;5129894;27;20445;-60
2021/03/10 04:13:00;;;;;;;34.45;23.27;;;2.90;96.30;;;;;;5129945;27;20069;-61
2021/03/10 04:15:26;;;;;;;33.30;23.27;;;2.90;96.40;;;;;;5129536;27;20156;-61
2021/03/10 04:17:53;;;;;;;38.17;25.27;;;2.80;96.30;;;;;;5129617;27;20050;-61
2021/03/10 04:20:20;;;;;;;34.70;24.17;;;2.70;96.50;;;;;;5129567;27;20043;-60
2021/03/10 04:22:46;;;;;;;39.15;24.42;;;2.70;96.90;;;;;;5129226;27;20047;-60
2021/03/10 04:25:13;;;;;;;35.92;23.77;;;2.50;97.00;;;;;;5129411;27;20043;-62
2021/03/10 04:27:39;;;;;;;36.90;25.08;;;2.50;97.20;;;;;;5128656;27;20043;-62
2021/03/10 04:30:07;;;;;;;40.92;26.50;;;2.50;97.60;;;;;;5129067;28;20051;-61
2021/03/10 04:32:33;;;;;;;44.95;28.85;;;2.40;97.30;;;;;;5129199;27;20054;-61
2021/03/10 04:34:59;;;;;;;41.87;27.43;;;2.30;97.30;;;;;;5128639;28;20413;-61
2021/03/10 04:37:25;;;;;;;42.03;26.95;;;2.30;97.20;;;;;;5128964;27;20293;-61
2021/03/10 04:39:50;;;;;;;39.03;26.00;;;2.30;97.10;;;;;;5128799;28;20384;-62
2021/03/10 04:42:16;;;;;;;45.53;28.70;;;2.30;97.20;;;;;;5129080;27;20401;-62
2021/03/10 04:44:42;;;;;;;49.93;29.57;;;2.30;97.20;;;;;;5129358;28;20052;-62
2021/03/10 04:47:07;;;;;;;42.60;28.03;;;2.20;97.40;;;;;;5128897;27;20500;-61
2021/03/10 04:49:33;;;;;;;43.23;27.50;;;2.20;97.30;;;;;;5133266;27;20043;-61
2021/03/10 04:51:59;;;;;;;44.03;28.17;;;2.20;97.20;;;;;;5133377;27;20057;-61
2021/03/10 04:54:26;;;;;;;42.50;28.20;;;2.20;97.30;;;;;;5133271;27;20073;-61
2021/03/10 04:56:51;;;;;;;43.47;27.50;;;2.20;97.30;;;;;;5133331;27;20043;-62
2021/03/10 04:59:17;;;;;;;49.50;28.80;;;2.10;97.30;;;;;;5133282;27;20186;-60
2021/03/10 05:01:43;;;;;;;46.35;28.60;;;2.10;97.30;;;;;;5133280;27;20039;-61
2021/03/10 05:04:09;;;;;;;49.17;30.95;;;2.10;97.80;;;;;;5133085;27;20054;-61
2021/03/10 05:06:35;;;;;;;49.43;31.07;;;2.10;97.70;;;;;;5132729;27;20481;-61
2021/03/10 05:09:01;;;;;;;53.50;30.93;;;2.10;97.80;;;;;;5132791;27;20055;-60
2021/03/10 05:11:26;;;;;;;48.07;29.73;;;2.10;97.90;;;;;;5131445;27;20045;-61
2021/03/10 05:13:52;;;;;;;49.83;29.43;;;2.00;97.90;;;;;;5132846;27;20081;-61
2021/03/10 05:16:18;;;;;;;49.40;29.37;;;2.10;97.80;;;;;;5132590;27;20040;-61
2021/03/10 05:18:44;;;;;;;49.77;29.97;;;2.10;97.90;;;;;;5133113;27;20062;-60
2021/03/10 05:21:10;;;;;;;53.65;30.65;;;2.00;97.90;;;;;;5132882;27;20408;-61
2021/03/10 05:23:41;;;;;;;48.38;30.52;;;2.00;97.80;;;;;;5132327;27;20081;-61
2021/03/10 05:26:08;;;;;;;54.58;32.08;;;2.00;98.00;;;;;;5132644;27;20066;-61
2021/03/10 05:28:34;;;;;;;56.00;33.38;;;2.00;98.20;;;;;;5132640;27;20047;-60
2021/03/10 05:31:00;;;;;;;66.77;34.83;;;2.00;98.10;;;;;;5132603;27;20108;-61
2021/03/10 05:33:25;;;;;;;61.03;34.70;;;2.00;98.30;;;;;;5132453;27;20122;-61
2021/03/10 05:35:51;;;;;;;59.23;33.43;;;2.10;98.40;;;;;;5132393;27;20296;-61
2021/03/10 05:38:17;;;;;;;64.27;36.63;;;2.20;98.40;;;;;;5132307;27;20039;-60
2021/03/10 05:40:42;;;;;;;58.10;33.77;;;2.30;98.30;;;;;;5131882;27;20102;-61
2021/03/10 05:43:08;;;;;;;51.03;30.17;;;2.30;98.10;;;;;;5132400;27;20168;-61
2021/03/10 05:45:34;;;;;;;62.73;33.97;;;2.40;97.90;;;;;;5130834;27;20046;-61
2021/03/10 05:47:59;;;;;;;49.93;31.80;;;2.40;97.90;;;;;;5130461;27;20058;-61
2021/03/10 05:50:25;;;;;;;58.67;34.70;;;2.50;97.80;;;;;;5131820;27;20117;-62
2021/03/10 05:52:53;;;;;;;51.90;31.47;;;2.50;97.80;;;;;;5131129;27;20039;-62
2021/03/10 05:55:22;;;;;;;57.40;34.72;;;2.50;97.80;;;;;;5130254;27;20047;-62
2021/03/10 05:57:47;;;;;;;58.20;33.92;;;2.50;97.80;;;;;;5130451;27;20379;-63
2021/03/10 06:00:15;;;;;;;52.83;32.47;;;2.50;97.70;;;;;;5130575;27;20043;-62
2021/03/10 06:02:41;;;;;;;56.60;33.65;;;2.60;97.70;;;;;;5131394;27;20127;-63
2021/03/10 06:05:24;;;;;;;50.55;32.45;;;2.60;97.80;;;;;;5131176;27;20053;-63
2021/03/10 06:08:04;;;;;;;53.30;32.70;;;2.60;97.80;;;;;;5131677;27;20074;-62
2021/03/10 06:10:42;;;;;;;55.03;33.03;;;2.80;97.80;;;;;;5131314;27;20047;-63
2021/03/10 06:13:20;;;;;;;49.15;31.70;;;2.70;97.60;;;;;;5131338;27;20043;-63
2021/03/10 06:15:46;;;;;;;51.63;32.80;;;2.70;97.50;;;;;;5130989;27;20484;-62
2021/03/10 06:18:29;;;;;;;51.17;32.22;;;2.70;97.60;;;;;;5131428;27;20096;-62
2021/03/10 06:21:11;;;;;;;55.15;33.45;;;2.70;97.50;;;;;;5131041;27;20104;-62
2021/03/10 06:23:49;;;;;;;52.13;31.23;;;2.70;97.50;;;;;;5131007;27;20095;-62
2021/03/10 06:26:19;;;;;;;49.33;32.22;;;2.80;97.50;;;;;;5130772;27;20063;-62
2021/03/10 06:28:45;;;;;;;48.33;30.17;;;2.70;97.50;;;;;;5130741;27;20054;-62
2021/03/10 06:31:18;;;;;;;46.47;30.27;;;2.80;97.50;;;;;;5130636;27;20047;-62
2021/03/10 06:33:45;;;;;;;48.75;29.75;;;2.80;97.40;;;;;;5130702;27;20118;-62
2021/03/10 06:36:11;;;;;;;46.38;31.20;;;2.80;97.30;;;;;;5129249;27;20527;-63
2021/03/10 06:38:36;;;;;;;51.13;31.65;;;2.80;97.20;;;;;;5130729;27;20059;-63
2021/03/10 06:41:02;;;;;;;50.37;30.23;;;2.80;97.20;;;;;;5126201;27;20108;-63
2021/03/10 06:43:39;;;;;;;45.57;30.90;;;2.90;97.10;;;;;;5118056;27;20079;-62
2021/03/10 06:46:18;;;;;;;47.83;30.88;;;2.90;97.00;;;;;;5129985;27;20115;-63
2021/03/10 06:49:01;;;;;;;44.72;30.42;;;3.00;96.90;;;;;;5130496;27;20050;-63
2021/03/10 06:51:29;;;;;;;45.40;29.65;;;3.00;96.90;;;;;;5130474;27;20043;-62
2021/03/10 06:53:55;;;;;;;45.92;29.73;;;3.00;96.80;;;;;;5128763;27;20047;-62
2021/03/10 06:56:23;;;;;;;50.05;30.33;;;3.00;96.70;;;;;;5131085;27;20086;-62
2021/03/10 06:58:58;;;;;;;45.75;29.83;;;3.00;96.80;;;;;;5130848;27;20404;-62
2021/03/10 07:01:26;;;;;;;67.28;36.97;;;3.10;96.70;;;;;;5128939;27;20047;-61
2021/03/10 07:03:56;;;;;;;71.18;35.55;;;3.20;97.10;;;;;;5131284;27;20050;-62
2021/03/10 07:06:23;;;;;;;39.70;27.00;;;3.60;97.20;;;;;;5130663;27;20070;-61
2021/03/10 07:08:49;;;;;;;39.60;27.38;;;3.50;96.10;;;;;;5130213;27;20067;-63
2021/03/10 07:11:15;;;;;;;37.85;26.45;;;3.40;96.00;;;;;;5129488;27;20043;-62
2021/03/10 07:13:43;;;;;;;40.27;27.70;;;3.40;95.90;;;;;;5129894;27;20493;-62
2021/03/10 07:16:10;;;;;;;38.58;26.50;;;3.30;95.70;;;;;;5127558;27;20050;-61
2021/03/10 07:18:37;;;;;;;44.45;26.33;;;3.30;95.80;;;;;;5126080;27;20088;-63
2021/03/10 07:21:05;;;;;;;38.28;25.92;;;3.30;95.90;;;;;;5126413;27;20104;-62
2021/03/10 07:23:38;;;;;;;38.97;26.08;;;3.30;95.90;;;;;;5125736;27;20055;-61
2021/03/10 07:26:05;;;;;;;36.50;25.02;;;3.40;95.90;;;;;;5126483;27;20032;-62
2021/03/10 07:28:32;;;;;;;36.70;25.20;;;3.40;95.70;;;;;;5126105;27;20042;-61
2021/03/10 07:30:57;;;;;;;37.75;25.40;;;3.40;95.60;;;;;;5125789;27;20069;-62
2021/03/10 07:33:24;;;;;;;37.87;24.93;;;3.50;95.60;;;;;;5127839;27;20651;-62
2021/03/10 07:35:54;;;;;;;37.50;26.00;;;3.50;95.60;;;;;;5127513;27;20118;-63
2021/03/10 07:38:23;;;;;;;39.65;26.13;;;3.50;95.60;;;;;;5128381;27;20061;-60
2021/03/10 07:40:59;;;;;;;37.50;27.02;;;3.50;95.50;;;;;;5129486;27;20119;-61
2021/03/10 07:43:42;;;;;;;40.70;27.48;;;3.60;95.60;;;;;;5129105;27;20676;-62
2021/03/10 07:46:19;;;;;;;43.38;27.42;;;3.70;95.60;;;;;;5129324;27;20043;-63
2021/03/10 07:48:45;;;;;;;41.85;27.00;;;3.70;95.60;;;;;;5129253;27;20135;-62
2021/03/10 07:51:30;;;;;;;43.73;27.77;;;3.70;95.60;;;;;;5129443;27;20078;-63
2021/03/10 07:53:56;;;;;;;43.70;28.10;;;3.70;95.60;;;;;;5128783;27;20081;-62
2021/03/10 07:56:27;;;;;;;41.63;28.27;;;3.70;95.60;;;;;;5128576;27;20195;-62
2021/03/10 07:58:53;;;;;;;44.17;28.52;;;3.80;95.60;;;;;;5129088;27;20047;-63
2021/03/10 08:01:19;;;;;;;42.83;28.00;;;3.90;95.60;;;;;;5128819;27;20593;-62
2021/03/10 08:03:45;;;;;;;43.53;28.00;;;3.90;95.50;;;;;;5128960;27;20588;-63
2021/03/10 08:06:12;;;;;;;44.58;27.92;;;3.90;95.60;;;;;;5129121;27;20488;-62
2021/03/10 08:08:43;;;;;;;42.70;28.15;;;3.90;95.60;;;;;;5128516;27;20043;-63
2021/03/10 08:11:17;;;;;;;42.70;28.83;;;4.00;95.60;;;;;;5128734;27;20062;-61
2021/03/10 08:13:44;;;;;;;43.22;28.45;;;4.10;95.50;;;;;;5128993;27;20051;-62
2021/03/10 08:16:11;;;;;;;41.70;27.65;;;4.10;95.50;;;;;;5128665;27;20070;-62
2021/03/10 08:18:39;;;;;;;40.85;28.15;;;4.20;95.50;;;;;;5128558;27;20047;-62
2021/03/10 08:21:13;;;;;;;41.47;28.10;;;4.20;95.40;;;;;;5129072;27;20039;-63
2021/03/10 08:23:40;;;;;;;42.75;28.73;;;4.40;95.50;;;;;;5127679;27;20077;-62
2021/03/10 08:26:09;;;;;;;40.78;27.10;;;4.40;95.50;;;;;;5129559;27;20053;-62
2021/03/10 08:28:41;;;;;;;45.28;28.75;;;4.40;95.40;;;;;;5129193;27;20058;-62
2021/03/10 08:31:10;;;;;;;40.20;27.23;;;4.50;95.40;;;;;;5125974;28;20039;-62
2021/03/10 08:33:50;;;;;;;45.30;29.48;;;4.50;95.20;;;;;;5126765;27;20043;-62
2021/03/10 08:36:17;;;;;;;45.25;28.83;;;4.60;95.10;;;;;;5126600;27;20081;-62
2021/03/10 08:38:44;;;;;;;44.78;30.77;;;4.60;95.20;;;;;;5126990;27;20039;-62
2021/03/10 08:41:10;;;;;;;42.78;29.25;;;4.70;95.20;;;;;;5126773;27;20405;-62
2021/03/10 08:43:36;;;;;;;44.43;29.53;;;4.80;94.90;;;;;;5127196;28;20094;-61
2021/03/10 08:46:03;;;;;;;42.72;28.77;;;4.80;94.90;;;;;;5126492;27;20478;-62
2021/03/10 08:48:35;;;;;;;39.75;28.13;;;4.90;94.80;;;;;;5126913;27;20043;-62
2021/03/10 08:51:05;;;;;;;40.63;28.75;;;5.00;94.70;;;;;;5126911;28;20074;-62
2021/03/10 08:53:30;;;;;;;44.30;28.60;;;5.10;94.50;;;;;;5126730;28;20047;-61
2021/03/10 08:56:07;;;;;;;41.10;28.43;;;5.10;94.50;;;;;;5126883;27;20084;-63
2021/03/10 08:58:33;;;;;;;42.63;28.42;;;5.10;94.40;;;;;;5126151;27;20065;-62
2021/03/10 09:00:59;;;;;;;44.77;29.47;;;5.20;94.30;;;;;;5126619;27;20381;-63
2021/03/10 09:03:24;;;;;;;41.60;28.57;;;5.20;94.00;;;;;;5127054;27;20395;-62
2021/03/10 09:05:51;;;;;;;39.43;28.17;;;5.20;94.20;;;;;;5126046;28;20035;-62
2021/03/10 09:08:22;;;;;;;41.90;29.73;;;5.30;94.20;;;;;;5126642;27;20066;-62
2021/03/10 09:10:53;;;;;;;46.15;29.67;;;5.40;94.30;;;;;;5126667;27;20043;-62
2021/03/10 09:13:22;;;;;;;44.75;30.33;;;5.40;94.20;;;;;;5126101;27;20046;-62
2021/03/10 09:15:48;;;;;;;43.65;29.90;;;5.50;94.00;;;;;;5126781;28;20047;-62
2021/03/10 09:18:14;;;;;;;45.03;30.85;;;5.50;93.90;;;;;;5126638;27;20039;-63
2021/03/10 09:20:41;;;;;;;47.67;30.90;;;5.70;94.00;;;;;;5126342;28;20069;-62
2021/03/10 09:23:08;;;;;;;46.70;29.58;;;5.70;93.90;;;;;;5126706;27;20061;-61
2021/03/10 09:25:41;;;;;;;47.92;30.67;;;5.80;93.90;;;;;;5126259;27;20059;-62
2021/03/10 09:28:15;;;;;;;48.65;31.80;;;5.90;93.80;;;;;;5126276;27;20043;-62
2021/03/10 09:30:45;;;;;;;49.92;32.80;;;6.00;93.80;;;;;;5126403;27;20039;-63
2021/03/10 09:33:22;;;;;;;48.10;31.40;;;6.00;93.60;;;;;;5126293;27;20057;-62
2021/03/10 09:36:02;;;;;;;45.08;31.35;;;6.10;93.60;;;;;;5129201;27;20117;-62
2021/03/10 09:38:29;;;;;;;47.40;31.33;;;6.10;93.30;;;;;;5130186;27;20460;-62
2021/03/10 09:41:00;;;;;;;48.13;31.95;;;6.30;93.60;;;;;;5130129;27;20125;-62
2021/03/10 09:43:28;;;;;;;47.00;32.13;;;6.30;93.40;;;;;;5130541;27;20043;-62
2021/03/10 09:45:57;;;;;;;46.88;32.35;;;6.40;93.00;;;;;;5131190;27;20126;-67
2021/03/10 09:48:35;;;;;;;47.55;32.75;;;6.90;93.00;;;;;;5132501;27;20450;-62
2021/03/10 09:51:14;;;;;;;48.13;32.15;;;6.90;92.70;;;;;;5132327;27;20050;-61
2021/03/10 09:53:43;;;;;;;48.53;32.63;;;7.00;92.70;;;;;;5131930;27;20051;-63
2021/03/10 09:56:10;;;;;;;49.20;32.25;;;6.90;92.50;;;;;;5131839;27;20050;-62
2021/03/10 09:58:55;;;;;;;50.70;33.55;;;6.90;92.20;;;;;;5133284;27;20115;-62
2021/03/10 10:01:23;;;;;;;47.38;33.63;;;7.00;92.40;;;;;;5134882;27;20043;-63
2021/03/10 10:03:49;;;;;;;47.40;31.73;;;6.90;92.40;;;;;;5133940;27;20039;-63
2021/03/10 10:06:17;;;;;;;48.03;32.43;;;7.00;92.40;;;;;;5133852;27;20047;-63
2021/03/10 10:08:44;;;;;;;47.38;32.75;;;7.00;92.50;;;;;;5134053;27;20400;-62
2021/03/10 10:11:12;;;;;;;46.45;32.15;;;7.00;92.40;;;;;;5131658;27;20058;-62
2021/03/10 10:13:40;;;;;;;49.38;33.97;;;7.10;92.60;;;;;;5130247;27;20050;-64
2021/03/10 10:16:07;;;;;;;46.63;30.95;;;7.10;92.50;;;;;;5130755;27;20388;-64
2021/03/10 10:18:33;;;;;;;47.22;32.85;;;7.10;92.30;;;;;;5130860;27;20179;-62
2021/03/10 10:20:59;;;;;;;50.00;33.23;;;7.10;92.30;;;;;;5130351;27;20714;-62
2021/03/10 10:23:25;;;;;;;46.93;31.57;;;7.10;92.30;;;;;;5130586;27;20075;-63
2021/03/10 10:25:50;;;;;;;47.30;32.27;;;7.10;92.40;;;;;;5130760;27;20057;-62
2021/03/10 10:28:16;;;;;;;50.83;32.57;;;7.20;92.20;;;;;;5130198;27;20122;-62
2021/03/10 10:30:41;;;;;;;46.37;32.20;;;7.10;92.00;;;;;;5129195;27;20122;-63
2021/03/10 10:33:07;;;;;;;48.83;33.53;;;7.10;92.20;;;;;;5130504;27;20047;-63
2021/03/10 10:35:33;;;;;;;44.60;30.70;;;7.20;92.10;;;;;;5130394;27;20072;-63
2021/03/10 10:37:58;;;;;;;46.30;31.63;;;7.20;92.30;;;;;;5130747;27;20039;-63
2021/03/10 10:40:24;;;;;;;46.87;31.63;;;7.20;92.20;;;;;;5130007;27;20431;-63
2021/03/10 10:42:51;;;;;;;45.87;31.40;;;7.20;92.10;;;;;;5128730;27;20047;-63
2021/03/10 10:45:17;;;;;;;46.70;30.10;;;7.20;92.00;;;;;;5130057;27;20199;-63
2021/03/10 10:47:44;;;;;;;46.40;31.83;;;7.20;92.10;;;;;;5130157;27;20098;-63
2021/03/10 10:50:12;;;;;;;52.22;32.72;;;7.30;91.80;;;;;;5130342;27;20123;-63
2021/03/10 10:52:38;;;;;;;45.35;30.05;;;7.30;91.80;;;;;;5130486;27;20886;-62
2021/03/10 10:55:06;;;;;;;49.38;32.63;;;7.30;92.00;;;;;;5130442;27;20088;-62
2021/03/10 10:57:32;;;;;;;47.42;31.88;;;7.40;91.90;;;;;;5130480;27;20062;-62
2021/03/10 10:59:58;;;;;;;46.53;31.07;;;7.50;91.90;;;;;;5130164;27;20039;-63
2021/03/10 11:02:23;;;;;;;46.00;32.70;;;7.40;91.80;;;;;;5130125;27;20091;-63
2021/03/10 11:04:49;;;;;;;47.30;31.67;;;7.50;91.80;;;;;;5130245;27;20081;-64
2021/03/10 11:07:15;;;;;;;47.20;31.57;;;7.50;91.90;;;;;;5129831;27;20237;-64
2021/03/10 11:09:40;;;;;;;45.97;30.87;;;7.60;91.80;;;;;;5129784;27;20164;-63
2021/03/10 11:12:09;;;;;;;46.85;31.52;;;7.60;91.90;;;;;;5128085;27;20418;-63
2021/03/10 11:14:36;;;;;;;45.95;30.83;;;7.60;91.80;;;;;;5128087;27;20070;-64
2021/03/10 11:17:02;;;;;;;43.80;30.13;;;7.60;91.60;;;;;;5128054;27;20071;-64
2021/03/10 11:19:28;;;;;;;41.90;29.97;;;7.70;91.60;;;;;;5128139;27;20297;-63
2021/03/10 11:21:53;;;;;;;44.90;30.40;;;7.60;91.10;;;;;;5127751;27;20300;-63
2021/03/10 11:24:19;;;;;;;43.87;29.67;;;7.70;91.10;;;;;;5127768;27;20039;-63
2021/03/10 11:26:45;;;;;;;44.43;29.20;;;7.70;91.20;;;;;;5127971;27;20735;-63
2021/03/10 11:29:11;;;;;;;48.70;30.60;;;7.80;90.90;;;;;;5127997;27;20077;-63
2021/03/10 11:31:37;;;;;;;47.60;32.33;;;7.80;91.10;;;;;;5128060;27;20138;-60
2021/03/10 11:34:03;;;;;;;44.63;30.90;;;7.80;90.80;;;;;;5127956;27;20115;-64
2021/03/10 11:36:29;;;;;;;46.30;31.13;;;7.90;90.50;;;;;;5129381;27;20754;-64
2021/03/10 11:38:54;;;;;;;44.67;30.33;;;7.80;90.40;;;;;;5129577;27;20534;-63
2021/03/10 11:41:20;;;;;;;45.37;30.53;;;7.80;90.70;;;;;;5129459;27;20047;-66
2021/03/10 11:43:46;;;;;;;44.57;29.77;;;7.90;90.50;;;;;;5128979;27;20062;-63
2021/03/10 11:46:12;;;;;;;43.07;29.27;;;7.90;90.60;;;;;;5129220;27;20453;-63
2021/03/10 11:48:37;;;;;;;47.40;30.13;;;7.90;90.10;;;;;;5129428;27;20292;-63
2021/03/10 11:51:04;;;;;;;44.33;30.13;;;8.00;90.60;;;;;;5129262;27;20035;-64
2021/03/10 11:53:30;;;;;;;40.33;28.30;;;8.10;90.50;;;;;;5129061;27;20122;-63
2021/03/10 11:55:56;;;;;;;41.70;28.97;;;8.10;90.10;;;;;;5129498;27;20360;-64
2021/03/10 11:58:26;;;;;;;44.13;29.57;;;8.10;90.20;;;;;;5129201;27;20292;-64
2021/03/10 12:00:52;;;;;;;42.23;28.80;;;8.20;90.30;;;;;;5129519;27;20054;-64
2021/03/10 12:03:18;;;;;;;44.20;30.27;;;8.20;89.60;;;;;;5129718;27;20452;-63
2021/03/10 12:05:44;;;;;;;40.70;28.07;;;8.10;89.20;;;;;;5129035;27;20846;-64
2021/03/10 12:08:09;;;;;;;40.60;29.13;;;8.10;88.50;;;;;;5129359;27;20134;-64
2021/03/10 12:10:39;;;;;;;43.27;28.90;;;8.10;89.80;;;;;;5122516;27;20051;-63
2021/03/10 12:13:05;;;;;;;42.47;28.90;;;8.20;90.00;;;;;;5094174;28;20108;-63
2021/03/10 12:15:31;;;;;;;41.60;28.40;;;8.20;89.90;;;;;;5088471;28;20643;-63
2021/03/10 12:17:57;;;;;;;38.03;27.57;;;8.20;89.10;;;;;;5088381;28;20109;-62
2021/03/10 12:20:23;;;;;;;40.53;29.73;;;8.20;90.10;;;;;;5087768;28;20055;-63
2021/03/10 12:22:49;;;;;;;42.90;29.23;;;8.20;90.00;;;;;;5113844;27;20150;-63
2021/03/10 12:25:14;;;;;;;41.83;28.53;;;8.20;89.80;;;;;;5130314;27;20435;-63
2021/03/10 12:27:40;;;;;;;46.20;29.60;;;8.10;89.10;;;;;;5129918;27;20071;-62
2021/03/10 12:30:06;;;;;;;43.60;28.50;;;8.20;89.20;;;;;;5128894;28;20731;-62
2021/03/10 12:32:35;;;;;;;39.40;28.60;;;8.20;88.90;;;;;;5128842;27;20047;-62
2021/03/10 12:35:01;;;;;;;41.87;28.57;;;8.10;88.80;;;;;;5129118;27;20332;-62
2021/03/10 12:37:27;;;;;;;39.17;27.67;;;8.10;89.10;;;;;;5128902;27;20401;-62
2021/03/10 12:39:53;;;;;;;45.90;27.97;;;8.20;88.80;;;;;;5128903;28;20293;-63
2021/03/10 12:42:19;;;;;;;41.13;28.57;;;8.20;88.60;;;;;;5129089;27;20043;-63